Rhapsody Of The Seas — C6UA2 — position and weather

sailwx.info

Track history (hours):
 
Tides and Currents Weather Stations Pressure Air Temp Water Temp Dewpoint Dewpoint Depression Visibility Wind Speed Wind Dir Waves Ship Positions

Rhapsody Of The Seas

Last reported at 2016-Aug-30 00:32 UTC. Time now 2016-Aug-30 09:07 UTC.
Position N 36°18' E 024°02'.

Type: Passenger vessel. MMSI: 311805000.

Date/timePositionNaut miles runAvg speedWind from/ knotsBaromVisibWave heightAir tempDewpointWater temp
2016-Aug-30 00:32N 36°18' E 024°02'1716.8
2016-Aug-29 23:33N 36°16' E 023°42'1018.6
2016-Aug-29 23:00N 36°12' E 023°30'818.6 300 / 31013.0 26.020.228.0
2016-Aug-29 22:34N 36°16' E 023°21'30515.7
2016-Aug-29 03:10N 40°02' E 019°02'1373.3
2016-Aug-29 03:00N 40°00' E 019°18'8822.0 350 / 101015.0 23.020.127.0
2016-Aug-28 23:00N 41°18' E 018°24'205 8.9 230 / 81017.0 23.020.126.0
2016-Aug-28 00:00N 43°42' E 015°06'3811.1 310 / 101018.0 23.020.127.0
2016-Aug-27 20:33N 44°05' E 014°24'1211.6
2016-Aug-27 19:33N 44°16' E 014°19'8 0.4
2016-Aug-27 01:00N 44°24' E 014°18'2711.0 300 / 41020.0 24.021.126.0
2016-Aug-26 22:34N 44°31' E 013°42'1211.7
2016-Aug-26 21:33N 44°40' E 013°31'1212.2
2016-Aug-26 20:33N 44°50' E 013°22'1712.1
2016-Aug-26 19:07N 45°02' E 013°05'712.1
2016-Aug-26 18:33N 45°07' E 012°57'1212.2
2016-Aug-26 17:33N 45°15' E 012°44'1212.1
2016-Aug-26 16:34N 45°22' E 012°31'8 8.2
2016-Aug-26 15:34N 45°26' E 012°20'1 1.2
2016-Aug-26 14:31N 45°26' E 012°19'0 0.0
2016-Aug-26 13:31N 45°26' E 012°19'0 0.0
2016-Aug-26 12:31N 45°26' E 012°19'0 0.0
2016-Aug-26 11:31N 45°26' E 012°19'0 0.0
2016-Aug-26 10:31N 45°26' E 012°19'0 0.0
2016-Aug-26 09:31N 45°26' E 012°19'0 0.0
2016-Aug-26 08:32N 45°26' E 012°19'0 0.0
2016-Aug-26 07:31N 45°26' E 012°19'0 0.0
2016-Aug-26 06:31N 45°26' E 012°19'0 0.0
2016-Aug-26 04:32N 45°26' E 012°19'0 0.0
2016-Aug-26 03:31N 45°26' E 012°19'0 0.0
2016-Aug-26 02:31N 45°26' E 012°19'0 0.0
2016-Aug-26 01:31N 45°26' E 012°19'0 0.0
2016-Aug-26 00:31N 45°26' E 012°19'0 0.0
2016-Aug-25 23:31N 45°26' E 012°19'0 0.0
2016-Aug-25 22:31N 45°26' E 012°19'0 0.0
2016-Aug-25 21:31N 45°26' E 012°19'0 0.0
2016-Aug-25 20:31N 45°26' E 012°19'0 0.0
2016-Aug-25 19:31N 45°26' E 012°19'0 0.0
2016-Aug-25 18:31N 45°26' E 012°19'0 0.0
2016-Aug-25 17:31N 45°26' E 012°19'0 0.0
2016-Aug-25 16:31N 45°26' E 012°19'0 0.0
2016-Aug-25 15:28N 45°26' E 012°19'0 0.0
2016-Aug-25 14:31N 45°26' E 012°19'0 0.0
2016-Aug-25 13:31N 45°26' E 012°19'1 0.8
2016-Aug-25 12:34N 45°26' E 012°19'8 7.6
2016-Aug-25 11:33N 45°24' E 012°30'1818.4
2016-Aug-25 10:33N 45°12' E 012°50'1818.4
2016-Aug-25 09:33N 45°01' E 013°11'11417.4
2016-Aug-25 03:00N 43°30' E 014°48'11422.9 010 / 171017.0 23.016.926.0
2016-Aug-24 22:00N 42°12' E 016°42'34218.0 020 / 211015.0 25.019.126.0
2016-Aug-24 03:00N 37°18' E 020°30'15015.9 030 / 131010.0 0.524.021.127.0
2016-Aug-23 17:32N 36°57' E 023°36'1919.7
2016-Aug-23 16:33N 37°16' E 023°42'1919.0
2016-Aug-23 15:34N 37°35' E 023°44'1818.0
2016-Aug-23 14:33N 37°52' E 023°36'5 4.6
2016-Aug-23 13:33N 37°56' E 023°38'0 0.0
2016-Aug-23 12:30N 37°56' E 023°38'0 0.0
2016-Aug-23 11:33N 37°56' E 023°38'0 0.0
2016-Aug-23 10:33N 37°56' E 023°38'0 0.0
2016-Aug-23 09:33N 37°56' E 023°38'0 0.0
2016-Aug-23 08:33N 37°56' E 023°38'0 0.0
2016-Aug-23 07:33N 37°56' E 023°38'0 0.0
2016-Aug-23 06:33N 37°56' E 023°38'0 0.0
2016-Aug-23 05:33N 37°56' E 023°38'0 0.0
2016-Aug-23 04:33N 37°56' E 023°38'0 0.0
2016-Aug-23 03:33N 37°56' E 023°38'0 0.0
2016-Aug-23 02:33N 37°56' E 023°38'0 0.0
2016-Aug-23 01:33N 37°56' E 023°38'4 3.9
2016-Aug-23 00:33N 37°52' E 023°38'9 8.5
2016-Aug-22 23:34N 37°45' E 023°43'7 6.9
2016-Aug-22 22:33N 37°38' E 023°46'6 6.1
2016-Aug-22 21:33N 37°32' E 023°45'7 7.4
2016-Aug-22 20:34N 37°25' E 023°44'7 7.2
2016-Aug-22 19:33N 37°18' E 023°47'7 7.3
2016-Aug-22 18:33N 37°18' E 023°56'1211.6
2016-Aug-22 17:33N 37°24' E 024°09'46 7.5
2016-Aug-22 11:29N 37°30' E 025°06'8 8.4
2016-Aug-22 10:33N 37°31' E 025°15'9 8.8
2016-Aug-22 09:32N 37°36' E 025°25'7 7.4
2016-Aug-22 08:33N 37°39' E 025°33'8 7.4
2016-Aug-22 07:32N 37°43' E 025°41'8 2.5
2016-Aug-22 04:33N 37°50' E 025°36'8 7.7
2016-Aug-22 03:34N 37°49' E 025°27'5 9.4
2016-Aug-22 03:00N 37°54' E 025°24'24 6.1 340 / 161011.0 25.020.725.0
2016-Aug-21 23:00N 37°48' E 025°54'   340 / 211010.0 24.021.129.0
Track history (hours):
 
Tides and Currents Weather Stations Pressure Air Temp Water Temp Dewpoint Dewpoint Depression Visibility Wind Speed Wind Dir Waves Ship Positions

Rhapsody Of The Seas

Last reported at 2016-Aug-30 00:32 UTC. Time now 2016-Aug-30 09:07 UTC.
Position N 36°18' E 024°02'.

Type: Passenger vessel. MMSI: 311805000.

Date/timePositionNaut miles runAvg speedWind from/ knotsBaromVisibWave heightAir tempDewpointWater temp
2016-Aug-30 00:32N 36°18' E 024°02'1716.8
2016-Aug-29 23:33N 36°16' E 023°42'1018.6
2016-Aug-29 23:00N 36°12' E 023°30'818.6 300 / 31013.0 26.020.228.0
2016-Aug-29 22:34N 36°16' E 023°21'30515.7
2016-Aug-29 03:10N 40°02' E 019°02'1373.3
2016-Aug-29 03:00N 40°00' E 019°18'8822.0 350 / 101015.0 23.020.127.0
2016-Aug-28 23:00N 41°18' E 018°24'205 8.9 230 / 81017.0 23.020.126.0
2016-Aug-28 00:00N 43°42' E 015°06'3811.1 310 / 101018.0 23.020.127.0
2016-Aug-27 20:33N 44°05' E 014°24'1211.6
2016-Aug-27 19:33N 44°16' E 014°19'8 0.4
2016-Aug-27 01:00N 44°24' E 014°18'2711.0 300 / 41020.0 24.021.126.0
2016-Aug-26 22:34N 44°31' E 013°42'1211.7
2016-Aug-26 21:33N 44°40' E 013°31'1212.2
2016-Aug-26 20:33N 44°50' E 013°22'1712.1
2016-Aug-26 19:07N 45°02' E 013°05'712.1
2016-Aug-26 18:33N 45°07' E 012°57'1212.2
2016-Aug-26 17:33N 45°15' E 012°44'1212.1
2016-Aug-26 16:34N 45°22' E 012°31'8 8.2
2016-Aug-26 15:34N 45°26' E 012°20'1 1.2
2016-Aug-26 14:31N 45°26' E 012°19'0 0.0
2016-Aug-26 13:31N 45°26' E 012°19'0 0.0
2016-Aug-26 12:31N 45°26' E 012°19'0 0.0
2016-Aug-26 11:31N 45°26' E 012°19'0 0.0
2016-Aug-26 10:31N 45°26' E 012°19'0 0.0
2016-Aug-26 09:31N 45°26' E 012°19'0 0.0
2016-Aug-26 08:32N 45°26' E 012°19'0 0.0
2016-Aug-26 07:31N 45°26' E 012°19'0 0.0
2016-Aug-26 06:31N 45°26' E 012°19'0 0.0
2016-Aug-26 04:32N 45°26' E 012°19'0 0.0
2016-Aug-26 03:31N 45°26' E 012°19'0 0.0
2016-Aug-26 02:31N 45°26' E 012°19'0 0.0
2016-Aug-26 01:31N 45°26' E 012°19'0 0.0
2016-Aug-26 00:31N 45°26' E 012°19'0 0.0
2016-Aug-25 23:31N 45°26' E 012°19'0 0.0
2016-Aug-25 22:31N 45°26' E 012°19'0 0.0
2016-Aug-25 21:31N 45°26' E 012°19'0 0.0
2016-Aug-25 20:31N 45°26' E 012°19'0 0.0
2016-Aug-25 19:31N 45°26' E 012°19'0 0.0
2016-Aug-25 18:31N 45°26' E 012°19'0 0.0
2016-Aug-25 17:31N 45°26' E 012°19'0 0.0
2016-Aug-25 16:31N 45°26' E 012°19'0 0.0
2016-Aug-25 15:28N 45°26' E 012°19'0 0.0
2016-Aug-25 14:31N 45°26' E 012°19'0 0.0
2016-Aug-25 13:31N 45°26' E 012°19'1 0.8
2016-Aug-25 12:34N 45°26' E 012°19'8 7.6
2016-Aug-25 11:33N 45°24' E 012°30'1818.4
2016-Aug-25 10:33N 45°12' E 012°50'1818.4
2016-Aug-25 09:33N 45°01' E 013°11'11417.4
2016-Aug-25 03:00N 43°30' E 014°48'11422.9 010 / 171017.0 23.016.926.0
2016-Aug-24 22:00N 42°12' E 016°42'34218.0 020 / 211015.0 25.019.126.0
2016-Aug-24 03:00N 37°18' E 020°30'15015.9 030 / 131010.0 0.524.021.127.0
2016-Aug-23 17:32N 36°57' E 023°36'1919.7
2016-Aug-23 16:33N 37°16' E 023°42'1919.0
2016-Aug-23 15:34N 37°35' E 023°44'1818.0
2016-Aug-23 14:33N 37°52' E 023°36'5 4.6
2016-Aug-23 13:33N 37°56' E 023°38'0 0.0
2016-Aug-23 12:30N 37°56' E 023°38'0 0.0
2016-Aug-23 11:33N 37°56' E 023°38'0 0.0
2016-Aug-23 10:33N 37°56' E 023°38'0 0.0
2016-Aug-23 09:33N 37°56' E 023°38'0 0.0
2016-Aug-23 08:33N 37°56' E 023°38'0 0.0
2016-Aug-23 07:33N 37°56' E 023°38'0 0.0
2016-Aug-23 06:33N 37°56' E 023°38'0 0.0
2016-Aug-23 05:33N 37°56' E 023°38'0 0.0
2016-Aug-23 04:33N 37°56' E 023°38'0 0.0
2016-Aug-23 03:33N 37°56' E 023°38'0 0.0
2016-Aug-23 02:33N 37°56' E 023°38'0 0.0
2016-Aug-23 01:33N 37°56' E 023°38'4 3.9
2016-Aug-23 00:33N 37°52' E 023°38'9 8.5
2016-Aug-22 23:34N 37°45' E 023°43'7 6.9
2016-Aug-22 22:33N 37°38' E 023°46'6 6.1
2016-Aug-22 21:33N 37°32' E 023°45'7 7.4
2016-Aug-22 20:34N 37°25' E 023°44'7 7.2
2016-Aug-22 19:33N 37°18' E 023°47'7 7.3
2016-Aug-22 18:33N 37°18' E 023°56'1211.6
2016-Aug-22 17:33N 37°24' E 024°09'46 7.5
2016-Aug-22 11:29N 37°30' E 025°06'8 8.4
2016-Aug-22 10:33N 37°31' E 025°15'9 8.8
2016-Aug-22 09:32N 37°36' E 025°25'7 7.4
2016-Aug-22 08:33N 37°39' E 025°33'8 7.4
2016-Aug-22 07:32N 37°43' E 025°41'8 2.5
2016-Aug-22 04:33N 37°50' E 025°36'8 7.7
2016-Aug-22 03:34N 37°49' E 025°27'5 9.4
2016-Aug-22 03:00N 37°54' E 025°24'24 6.1 340 / 161011.0 25.020.725.0
2016-Aug-21 23:00N 37°48' E 025°54'   340 / 211010.0 24.021.129.0

Dump ship's entire track history